Monday, July 23, 2018, 2:07 AM EDT
Back to Local

KFDK, Frederick, Frederick Municipal Airport

Location: Frederick, MD, United States Lat: 39.417
Local Time: 2:07 AM EDT ( 6:07 GMT) Lon: -77.374
Time Zone: US/Eastern Elev: 301 ft

Show me the last for .
Show Decoded

2018-07-23 01:55 METAR KFDK 230555Z AUTO 34006KT 2SM +TSRA OVC013 22/22 A2992 RMK AO2 VIS 1V5 LTG
                 DSNT ALQS P0015 =
2018-07-23 01:35 METAR KFDK 230535Z AUTO 00000KT 10SM TS BKN013 OVC022 22/22 A2992 RMK AO2 LTG
                 DSNT E THRU SW =
2018-07-23 01:15 METAR KFDK 230515Z AUTO 02005KT 10SM VCTS OVC013 22/22 A2992 RMK AO2 LTG DSNT E
                 AND SE =
2018-07-23 00:55 METAR KFDK 230455Z AUTO 04004KT 10SM VCTS BKN013 OVC018 22/22 A2993 RMK AO2 LTG
                 DSNT NE THRU SE =
2018-07-23 00:35 METAR KFDK 230435Z AUTO 04003KT 10SM VCTS OVC019 21/21 A2993 RMK AO2 LTG DSNT E
                 AND SE =
2018-07-23 00:15 METAR KFDK 230415Z AUTO 01003KT 10SM VCTS BKN021 OVC027 22/22 A2993 RMK AO2 LTG
                 DSNT NE AND E =
2018-07-22 23:55 METAR KFDK 230355Z AUTO 00000KT 10SM VCTS BKN029 OVC036 22/22 A2994 RMK AO2 LTG
                 DSNT E AND SE =
2018-07-22 23:35 METAR KFDK 230335Z AUTO 00000KT 10SM VCTS SCT025 BKN034 OVC047 22/22 A2993 RMK
                 AO2 LTG DSNT E =
2018-07-22 23:15 METAR KFDK 230315Z AUTO 06003KT 10SM TS SCT025 SCT039 BKN055 22/22 A2993 RMK AO2
                 LTG DSNT E =
2018-07-22 22:55 METAR KFDK 230255Z AUTO 00000KT 10SM VCTS SCT046 BKN060 BKN085 22/22 A2992 RMK
                 AO2 LTG DSNT E AND SE P0008 =
2018-07-22 22:35 METAR KFDK 230235Z AUTO 00000KT 10SM TSRA SCT046 BKN080 OVC110 22/22 A2992 RMK
                 AO2 LTG DSNT NE THRU SE P0008 =
2018-07-22 22:15 METAR KFDK 230215Z AUTO 04003KT 7SM TSRA SCT050 BKN080 OVC110 22/22 A2992 RMK
                 AO2 LTG DSNT E AND SE P0007 =
2018-07-22 21:55 METAR KFDK 230155Z AUTO 00000KT 10SM TS SCT043 OVC050 23/23 A2993 RMK AO2 LTG
                 DSNT E THRU S =
2018-07-22 21:35 METAR KFDK 230135Z AUTO 07003KT 10SM VCTS OVC050 23/23 A2992 RMK AO2 LTG DSNT E
                 SE AND W =
2018-07-22 21:15 METAR KFDK 230115Z AUTO 00000KT 10SM VCTS SCT017 SCT055 BKN070 23/23 A2991 RMK
                 AO2 LTG DSNT E AND SE =
2018-07-22 20:55 METAR KFDK 230055Z AUTO 08004KT 10SM SCT018 SCT120 24/23 A2989 RMK AO2 LTG DSNT
                 E =
2018-07-22 20:47 METAR KFDK 230047Z 08003KT 10SM SCT018 SCT090 SCT120 24/24 A2989 =
2018-07-22 19:48 METAR KFDK 222348Z 00000KT 10SM SCT040 25/24 A2988 =
2018-07-22 18:48 METAR KFDK 222248Z 00000KT 10SM SCT030 26/21 A2987 =
2018-07-22 17:48 METAR KFDK 222148Z 00000KT 10SM BKN022 BKN110 25/24 A2986 =
2018-07-22 17:25 METAR KFDK 222125Z 09003KT 10SM BKN011 BKN025 25/24 A2985 =
2018-07-22 16:48 METAR KFDK 222048Z 00000KT 7SM BKN008 BKN017 BKN040 24/24 A2985 RMK LTG DSNT W =
2018-07-22 16:04 METAR KFDK 222004Z 00000KT 5SM VCTS-RA SCT016 BKN024 BKN040 23/23 A2987 RMK TS N
                 MOV NE LTG DSNT E =
2018-07-22 15:49 METAR KFDK 221949Z 00000KT 2SM TS-RA BKN020 BKN035 OVC065 23/23 A2978 RMK TS W
                 MOV NE LTG DSNT E =
2018-07-22 14:49 METAR KFDK 221849Z VRB05KT 10SM BKN027 BKN035 OVC050 26/18 A2985 =
2018-07-22 13:47 METAR KFDK 221747Z VRB05KT 10SM BKN028 BKN055 BKN070 26/18 A2986 =
2018-07-22 12:47 METAR KFDK 221647Z VRB04KT 10SM BKN022 BKN026 BKN039 25/18 A2986 =
2018-07-22 11:47 METAR KFDK 221547Z 18003KT 10SM BKN016 BKN022 24/18 A2987 =
2018-07-22 10:47 METAR KFDK 221447Z 18006KT 10SM BKN016 22/17 A2987 RMK LTG DSNT SE =
2018-07-22 10:04 METAR KFDK 221404Z 19004KT 10SM BKN014 BKN019 22/17 A2987 =
2018-07-22 09:47 METAR KFDK 221347Z 18005KT 10SM SCT019 21/17 A2987 =
2018-07-22 08:47 METAR KFDK 221247Z 21005KT 10SM SKC 21/17 A2984 =
2018-07-22 07:47 METAR KFDK 221147Z 00000KT 10SM SKC 18/18 A2980 =
2018-07-22 06:45 METAR KFDK 221045Z AUTO 22007KT 10SM CLR 17/17 A2979 RMK AO2 =
2018-07-22 06:35 METAR KFDK 221035Z AUTO 19004KT 10SM CLR 17/17 A2978 RMK AO2 =
2018-07-22 06:15 METAR KFDK 221015Z AUTO 23007KT 10SM CLR 17/17 A2977 RMK AO2 =
2018-07-22 05:55 METAR KFDK 220955Z AUTO 20005KT 10SM CLR 17/17 A2977 RMK AO2 =
2018-07-22 05:35 METAR KFDK 220935Z AUTO 22007KT 10SM SCT013 17/17 A2976 RMK AO2 =
2018-07-22 05:15 METAR KFDK 220915Z AUTO 20006KT 10SM BKN011 BKN018 17/17 A2975 RMK AO2 =
2018-07-22 04:55 METAR KFDK 220855Z AUTO 18006KT 10SM OVC009 17/17 A2974 RMK AO2 =
2018-07-22 04:35 METAR KFDK 220835Z AUTO 23006KT 10SM OVC009 17/17 A2974 RMK AO2 =
2018-07-22 04:15 METAR KFDK 220815Z AUTO 19005KT 10SM OVC009 17/17 A2972 RMK AO2 LTG DSNT E =
2018-07-22 03:55 METAR KFDK 220755Z AUTO 23008KT 10SM BKN007 BKN018 OVC029 17/17 A2972 RMK AO2
                 LTG DSNT E =
2018-07-22 03:35 METAR KFDK 220735Z AUTO 26006KT 10SM OVC018 17/17 A2970 RMK AO2 =
2018-07-22 03:15 METAR KFDK 220715Z AUTO 26010KT 10SM OVC016 17/17 A2971 RMK AO2 =
2018-07-22 02:55 METAR KFDK 220655Z AUTO 26012KT 10SM OVC016 17/17 A2970 RMK AO2 =
2018-07-22 02:35 METAR KFDK 220635Z AUTO 24007KT 10SM OVC014 17/17 A2970 RMK AO2 =
2018-07-22 02:15 METAR KFDK 220615Z AUTO 25005KT 10SM OVC012 18/18 A2969 RMK AO2 =

Support USWX by starting your Amazon purchase here.